createdAt,value
2019-02-10T00:00:29.130Z,0.00
2019-02-10T00:01:29.122Z,0.00
2019-02-10T00:02:29.109Z,0.00
2019-02-10T00:03:29.096Z,0.00
2019-02-10T00:04:29.120Z,0.00
2019-02-10T00:05:29.078Z,0.00
2019-02-10T00:06:29.066Z,0.00
2019-02-10T00:07:29.057Z,0.00
2019-02-10T00:08:29.043Z,0.00
2019-02-10T00:09:29.057Z,0.00
2019-02-10T00:10:29.022Z,0.00
2019-02-10T00:11:29.014Z,0.00
2019-02-10T00:12:29.000Z,0.00
2019-02-10T00:13:28.999Z,0.00
2019-02-10T00:14:29.005Z,0.00
2019-02-10T00:15:28.970Z,0.00
2019-02-10T00:16:28.963Z,0.00
2019-02-10T00:17:28.950Z,0.00
2019-02-10T00:18:28.945Z,0.00
2019-02-10T00:19:28.951Z,0.00
2019-02-10T00:20:28.916Z,0.00
2019-02-10T00:21:28.905Z,0.00
2019-02-10T00:22:28.896Z,0.00
2019-02-10T00:23:28.890Z,0.00
2019-02-10T00:24:28.900Z,0.00
2019-02-10T00:25:28.863Z,0.00
2019-02-10T00:26:28.854Z,0.00
2019-02-10T00:27:28.845Z,0.00
2019-02-10T00:28:28.833Z,0.00
2019-02-10T00:29:28.848Z,0.00
2019-02-10T00:30:28.809Z,0.00
2019-02-10T00:31:28.800Z,0.00
2019-02-10T00:32:28.788Z,0.00
2019-02-10T00:33:28.777Z,0.00
2019-02-10T00:34:28.902Z,0.00
2019-02-10T00:35:28.759Z,0.00
2019-02-10T00:36:33.220Z,0.00
2019-02-10T00:37:28.742Z,0.00
2019-02-10T00:38:28.733Z,0.00
2019-02-10T00:39:28.720Z,0.00
2019-02-10T00:40:28.727Z,0.00
2019-02-10T00:41:28.697Z,0.00
2019-02-10T00:42:28.691Z,0.00
2019-02-10T00:43:28.674Z,0.00
2019-02-10T00:44:28.661Z,0.00
2019-02-10T00:45:28.681Z,0.00
2019-02-10T00:46:28.641Z,0.00
2019-02-10T00:47:28.635Z,0.00
2019-02-10T00:48:28.623Z,0.00
2019-02-10T00:49:28.615Z,0.00
2019-02-10T00:50:28.625Z,0.00
2019-02-10T00:51:28.589Z,0.00
2019-02-10T00:52:28.582Z,0.00
2019-02-10T00:53:28.571Z,0.00
2019-02-10T00:54:28.555Z,0.00
2019-02-10T00:55:28.576Z,0.00
2019-02-10T00:56:28.532Z,0.00
2019-02-10T00:57:28.526Z,0.00
2019-02-10T00:58:28.524Z,0.00
2019-02-10T00:59:28.511Z,0.00
2019-02-10T01:00:28.526Z,0.00
2019-02-10T01:01:28.481Z,0.00
2019-02-10T01:02:28.486Z,0.00
2019-02-10T01:03:28.460Z,0.00
2019-02-10T01:04:28.450Z,0.00
2019-02-10T01:05:28.467Z,0.00
2019-02-10T01:06:28.433Z,0.00
2019-02-10T01:07:28.416Z,0.00
2019-02-10T01:08:28.429Z,0.00
2019-02-10T01:09:28.401Z,0.00
2019-02-10T01:10:28.414Z,0.00
2019-02-10T01:11:28.378Z,0.00
2019-02-10T01:12:28.367Z,0.00
2019-02-10T01:13:28.356Z,0.00
2019-02-10T01:14:28.345Z,0.00
2019-02-10T01:15:28.368Z,0.00
2019-02-10T01:16:28.321Z,0.00
2019-02-10T01:17:28.317Z,0.00
2019-02-10T01:18:28.316Z,0.00
2019-02-10T01:19:28.295Z,0.00
2019-02-10T01:20:28.308Z,0.00
2019-02-10T01:21:28.268Z,0.00
2019-02-10T01:22:28.262Z,0.00
2019-02-10T01:23:28.251Z,0.00
2019-02-10T01:24:28.237Z,0.00
2019-02-10T01:25:28.265Z,0.00
2019-02-10T01:26:28.217Z,0.00
2019-02-10T01:27:28.203Z,0.00
2019-02-10T01:28:28.198Z,0.00
2019-02-10T01:29:28.184Z,0.00
2019-02-10T01:30:28.254Z,0.00
2019-02-10T01:31:28.168Z,0.00
2019-02-10T01:32:28.155Z,0.00
2019-02-10T01:33:28.145Z,0.00
2019-02-10T01:34:28.135Z,0.00
2019-02-10T01:35:28.150Z,0.00
2019-02-10T01:36:28.166Z,0.00
2019-02-10T01:37:28.100Z,0.00
2019-02-10T01:38:28.089Z,0.00
2019-02-10T01:39:28.081Z,0.00
2019-02-10T01:40:28.102Z,0.00
2019-02-10T01:41:28.065Z,0.00
2019-02-10T01:42:28.054Z,0.00
2019-02-10T01:43:28.046Z,0.00
2019-02-10T01:44:28.030Z,0.00
2019-02-10T01:45:28.039Z,0.00
2019-02-10T01:46:28.011Z,0.00
2019-02-10T01:47:27.997Z,0.00
2019-02-10T01:48:27.987Z,0.00
2019-02-10T01:49:27.976Z,0.00
2019-02-10T01:50:27.990Z,0.00
2019-02-10T01:51:27.953Z,0.00
2019-02-10T01:52:27.945Z,0.00
2019-02-10T01:53:27.935Z,0.00
2019-02-10T01:54:27.927Z,0.00
2019-02-10T01:55:27.953Z,0.00
2019-02-10T01:56:27.903Z,0.00
2019-02-10T01:57:27.910Z,0.00
2019-02-10T01:58:27.885Z,0.00
2019-02-10T01:59:27.868Z,0.00
2019-02-10T02:00:27.892Z,0.00
2019-02-10T02:01:27.851Z,0.00
2019-02-10T02:02:27.840Z,0.00
2019-02-10T02:03:27.828Z,0.00
2019-02-10T02:04:27.820Z,0.00
2019-02-10T02:05:27.839Z,0.00
2019-02-10T02:06:27.796Z,0.00
2019-02-10T02:07:27.784Z,0.00
2019-02-10T02:08:27.771Z,0.00
2019-02-10T02:09:27.772Z,0.00
2019-02-10T02:10:27.788Z,0.00
2019-02-10T02:11:27.740Z,0.00
2019-02-10T02:12:27.732Z,0.00
2019-02-10T02:13:27.727Z,0.00
2019-02-10T02:14:27.708Z,0.00
2019-02-10T02:15:27.724Z,0.00
2019-02-10T02:16:27.702Z,0.00
2019-02-10T02:17:27.676Z,0.00
2019-02-10T02:18:27.672Z,0.00
2019-02-10T02:19:27.658Z,0.00
2019-02-10T02:20:27.709Z,0.00
2019-02-10T02:21:27.636Z,0.00
2019-02-10T02:22:27.624Z,0.00
2019-02-10T02:23:27.618Z,0.00
2019-02-10T02:24:27.606Z,0.00
2019-02-10T02:25:27.593Z,0.00
2019-02-10T02:26:27.610Z,0.00
2019-02-10T02:27:27.579Z,0.00
2019-02-10T02:28:27.559Z,0.00
2019-02-10T02:29:27.554Z,0.00
2019-02-10T02:30:27.556Z,0.00
2019-02-10T02:31:27.560Z,0.00
2019-02-10T02:32:27.525Z,0.00
2019-02-10T02:33:27.508Z,0.00
2019-02-10T02:34:27.513Z,0.00
2019-02-10T02:35:27.488Z,0.00
2019-02-10T02:36:27.506Z,0.00
2019-02-10T02:37:27.469Z,0.00
2019-02-10T02:38:27.467Z,0.00
2019-02-10T02:39:27.443Z,0.00
2019-02-10T02:40:27.436Z,0.00
2019-02-10T02:41:27.449Z,0.00
2019-02-10T02:42:27.416Z,0.00
2019-02-10T02:43:27.404Z,0.00
2019-02-10T02:44:27.417Z,0.00
2019-02-10T02:45:27.383Z,0.00
2019-02-10T02:46:27.393Z,0.00
2019-02-10T02:47:27.368Z,0.00
2019-02-10T02:48:27.347Z,0.00
2019-02-10T02:49:27.340Z,0.00
2019-02-10T02:50:27.331Z,0.00
2019-02-10T02:51:27.344Z,0.00
2019-02-10T02:52:27.309Z,0.00
2019-02-10T02:53:27.309Z,0.00
2019-02-10T02:54:27.284Z,0.00
2019-02-10T02:55:27.296Z,0.00
2019-02-10T02:56:27.315Z,0.00
2019-02-10T02:57:27.287Z,0.00
2019-02-10T02:58:27.248Z,0.00
2019-02-10T02:59:27.231Z,0.00
2019-02-10T03:00:27.222Z,0.00
2019-02-10T03:01:27.236Z,0.00
2019-02-10T03:02:27.211Z,0.00
2019-02-10T03:03:27.189Z,0.00
2019-02-10T03:04:27.182Z,0.00
2019-02-10T03:05:27.173Z,0.00
2019-02-10T03:06:27.187Z,0.00
2019-02-10T03:07:27.157Z,0.00
2019-02-10T03:08:27.136Z,0.00
2019-02-10T03:09:27.128Z,0.00
2019-02-10T03:10:27.120Z,0.00
2019-02-10T03:11:27.133Z,0.00
2019-02-10T03:12:27.096Z,0.00
2019-02-10T03:13:27.105Z,0.00
2019-02-10T03:14:27.072Z,0.00
2019-02-10T03:15:27.067Z,0.00
2019-02-10T03:16:27.079Z,0.00
2019-02-10T03:17:27.051Z,0.00
2019-02-10T03:18:27.032Z,0.00
2019-02-10T03:19:27.067Z,0.00
2019-02-10T03:20:27.014Z,0.00
2019-02-10T03:21:27.033Z,0.00
2019-02-10T03:22:26.989Z,0.00
2019-02-10T03:23:26.978Z,0.00
2019-02-10T03:24:26.965Z,0.00
2019-02-10T03:25:26.965Z,0.00
2019-02-10T03:26:26.973Z,0.00
2019-02-10T03:27:26.935Z,0.00
2019-02-10T03:28:26.926Z,0.00
2019-02-10T03:29:26.913Z,0.00
2019-02-10T03:30:26.916Z,0.00
2019-02-10T03:31:26.950Z,0.00
2019-02-10T03:32:26.889Z,0.00
2019-02-10T03:33:26.876Z,0.00
2019-02-10T03:34:26.875Z,0.00
2019-02-10T03:35:26.859Z,0.00
2019-02-10T03:36:26.869Z,0.00
2019-02-10T03:37:27.623Z,0.00
2019-02-10T03:38:26.823Z,0.00
2019-02-10T03:39:26.828Z,0.00
2019-02-10T03:40:26.807Z,0.00
2019-02-10T03:41:26.815Z,0.00
2019-02-10T03:42:26.776Z,0.00
2019-02-10T03:43:26.764Z,0.00
2019-02-10T03:44:26.812Z,0.00
2019-02-10T03:45:26.752Z,0.00
2019-02-10T03:46:26.799Z,0.00
2019-02-10T03:47:26.722Z,0.00
2019-02-10T03:48:26.721Z,0.00
2019-02-10T03:49:26.704Z,0.00
2019-02-10T03:50:26.698Z,0.00
2019-02-10T03:51:26.709Z,0.00
2019-02-10T03:52:26.667Z,0.00
2019-02-10T03:53:26.660Z,0.00
2019-02-10T03:54:26.657Z,0.00
2019-02-10T03:55:26.635Z,0.00
2019-02-10T03:56:26.652Z,0.00
2019-02-10T03:57:26.619Z,0.00
2019-02-10T03:58:26.608Z,0.00
2019-02-10T03:59:26.602Z,0.00
2019-02-10T04:00:26.588Z,0.00
2019-02-10T04:01:26.601Z,0.00
2019-02-10T04:02:26.568Z,0.00
2019-02-10T04:03:26.556Z,0.00
2019-02-10T04:04:26.540Z,0.00
2019-02-10T04:05:26.532Z,0.00
2019-02-10T04:06:26.547Z,0.00
2019-02-10T04:07:26.511Z,0.00
2019-02-10T04:08:26.525Z,0.00
2019-02-10T04:09:26.573Z,0.00
2019-02-10T04:10:26.636Z,0.00
2019-02-10T04:11:26.602Z,0.00
2019-02-10T04:12:26.483Z,0.00
2019-02-10T04:13:26.555Z,0.00
2019-02-10T04:14:26.575Z,0.00
2019-02-10T04:15:26.458Z,0.00
2019-02-10T04:16:26.415Z,0.00
2019-02-10T04:17:26.429Z,0.00
2019-02-10T04:18:26.391Z,0.00
2019-02-10T04:19:26.384Z,0.00
2019-02-10T04:20:26.380Z,0.00
2019-02-10T04:21:26.363Z,0.00
2019-02-10T04:22:26.377Z,0.00
2019-02-10T04:23:26.349Z,0.00
2019-02-10T04:24:26.331Z,0.00
2019-02-10T04:25:26.321Z,0.00
2019-02-10T04:26:26.311Z,0.00
2019-02-10T04:27:26.325Z,0.00
2019-02-10T04:28:26.293Z,0.00
2019-02-10T04:29:26.283Z,0.00
2019-02-10T04:30:26.269Z,0.00
2019-02-10T04:31:26.266Z,0.00
2019-02-10T04:32:26.271Z,0.00
2019-02-10T04:33:26.243Z,0.00
2019-02-10T04:34:26.227Z,0.00
2019-02-10T04:35:26.221Z,0.00
2019-02-10T04:36:26.209Z,0.00
2019-02-10T04:37:26.221Z,0.00
2019-02-10T04:38:26.185Z,0.00
2019-02-10T04:39:26.174Z,0.00
2019-02-10T04:40:26.163Z,0.00
2019-02-10T04:41:26.162Z,0.00
2019-02-10T04:42:26.169Z,0.00
2019-02-10T04:43:26.131Z,0.00
2019-02-10T04:44:26.121Z,0.00
2019-02-10T04:45:26.107Z,0.00
2019-02-10T04:46:26.104Z,0.00
2019-02-10T04:47:26.114Z,0.00
2019-02-10T04:48:26.081Z,0.00
2019-02-10T04:49:26.069Z,0.00
2019-02-10T04:50:26.063Z,0.00
2019-02-10T04:51:26.045Z,0.00
2019-02-10T04:52:26.055Z,0.00
2019-02-10T04:53:26.023Z,0.00
2019-02-10T04:54:26.015Z,0.00
2019-02-10T04:55:26.009Z,0.00
2019-02-10T04:56:25.998Z,0.00
2019-02-10T04:57:26.012Z,0.00
2019-02-10T04:58:25.972Z,0.00
2019-02-10T04:59:25.960Z,0.00
2019-02-10T05:00:25.954Z,0.00
2019-02-10T05:01:25.947Z,0.00
2019-02-10T05:02:25.957Z,0.00
2019-02-10T05:03:25.921Z,0.00
2019-02-10T05:04:25.903Z,0.00
2019-02-10T05:05:25.898Z,0.00
2019-02-10T05:06:25.888Z,0.00
2019-02-10T05:07:25.905Z,0.00
2019-02-10T05:08:25.863Z,0.00
2019-02-10T05:09:25.858Z,0.00
2019-02-10T05:10:25.849Z,0.00
2019-02-10T05:11:25.836Z,0.00
2019-02-10T05:12:25.854Z,0.00
2019-02-10T05:13:25.813Z,0.00
2019-02-10T05:14:25.799Z,0.00
2019-02-10T05:15:25.792Z,0.00
2019-02-10T05:16:25.783Z,0.00
2019-02-10T05:17:25.791Z,0.00
2019-02-10T05:18:25.759Z,0.00
2019-02-10T05:19:25.747Z,0.00
2019-02-10T05:20:25.737Z,0.00
2019-02-10T05:21:25.736Z,0.00
2019-02-10T05:22:25.753Z,0.00
2019-02-10T05:23:25.707Z,0.00
2019-02-10T05:24:25.708Z,0.00
2019-02-10T05:25:25.687Z,0.00
2019-02-10T05:26:25.681Z,0.00
2019-02-10T05:27:25.694Z,0.00
2019-02-10T05:28:25.651Z,0.00
2019-02-10T05:29:25.657Z,0.00
2019-02-10T05:30:25.636Z,0.00
2019-02-10T05:31:25.624Z,0.00
2019-02-10T05:32:25.654Z,0.00
2019-02-10T05:33:25.605Z,0.00
2019-02-10T05:34:25.630Z,0.00
2019-02-10T05:35:25.583Z,0.00
2019-02-10T05:36:25.572Z,0.00
2019-02-10T05:37:25.591Z,0.00
2019-02-10T05:38:25.551Z,0.00
2019-02-10T05:39:25.535Z,0.00
2019-02-10T05:40:25.525Z,0.00
2019-02-10T05:41:25.513Z,0.00
2019-02-10T05:42:25.535Z,0.00
2019-02-10T05:43:25.497Z,0.00
2019-02-10T05:44:25.500Z,0.00
2019-02-10T05:45:25.526Z,0.00
2019-02-10T05:46:25.467Z,0.00
2019-02-10T05:47:25.478Z,0.00
2019-02-10T05:48:25.447Z,0.00
2019-02-10T05:49:25.435Z,0.00
2019-02-10T05:50:25.433Z,0.00
2019-02-10T05:51:25.415Z,0.00
2019-02-10T05:52:25.438Z,0.00
2019-02-10T05:53:25.411Z,0.00
2019-02-10T05:54:25.477Z,0.00
2019-02-10T05:55:25.375Z,0.00
2019-02-10T05:56:25.385Z,0.00
2019-02-10T05:57:25.646Z,0.00
2019-02-10T05:58:25.343Z,0.00
2019-02-10T05:59:25.337Z,0.00
2019-02-10T06:00:25.317Z,0.00
2019-02-10T06:01:25.315Z,0.00
2019-02-10T06:02:25.309Z,0.00
2019-02-10T06:03:25.334Z,0.00
2019-02-10T06:04:25.274Z,0.00
2019-02-10T06:05:25.264Z,0.00
2019-02-10T06:06:25.269Z,0.00
2019-02-10T06:07:25.256Z,0.00
2019-02-10T06:08:25.268Z,0.00
2019-02-10T06:09:25.221Z,0.00
2019-02-10T06:10:25.214Z,0.00
2019-02-10T06:11:25.199Z,0.00
2019-02-10T06:12:25.190Z,0.00
2019-02-10T06:13:25.205Z,0.00
2019-02-10T06:14:25.171Z,0.00
2019-02-10T06:15:25.158Z,0.00
2019-02-10T06:16:25.152Z,0.00
2019-02-10T06:17:25.190Z,0.00
2019-02-10T06:18:25.164Z,0.00
2019-02-10T06:19:25.133Z,0.00
2019-02-10T06:20:25.105Z,0.00
2019-02-10T06:21:25.097Z,0.00
2019-02-10T06:22:25.097Z,0.00
2019-02-10T06:23:25.112Z,0.00
2019-02-10T06:24:25.071Z,0.00
2019-02-10T06:25:25.060Z,0.00
2019-02-10T06:26:25.050Z,4.00
2019-02-10T06:27:25.035Z,4.00
2019-02-10T06:28:25.062Z,4.00
2019-02-10T06:29:25.012Z,4.00
2019-02-10T06:30:25.004Z,4.00
2019-02-10T06:31:24.998Z,8.00
2019-02-10T06:32:24.976Z,4.00
2019-02-10T06:33:25.011Z,8.00
2019-02-10T06:34:24.973Z,8.00
2019-02-10T06:35:24.966Z,8.00
2019-02-10T06:36:24.958Z,16.00
2019-02-10T06:37:24.936Z,16.00
2019-02-10T06:38:24.944Z,20.00
2019-02-10T06:39:24.912Z,20.00
2019-02-10T06:40:24.898Z,20.00
2019-02-10T06:41:24.887Z,24.00
2019-02-10T06:42:24.887Z,28.00
2019-02-10T06:43:24.895Z,32.00
2019-02-10T06:44:24.852Z,36.00
2019-02-10T06:45:24.844Z,40.00
2019-02-10T06:46:24.831Z,44.00
2019-02-10T06:47:24.825Z,52.00
2019-02-10T06:48:24.832Z,52.00
2019-02-10T06:49:24.798Z,60.00
2019-02-10T06:50:24.798Z,64.00
2019-02-10T06:51:24.784Z,68.00
2019-02-10T06:52:24.766Z,76.00
2019-02-10T06:53:24.788Z,92.00
2019-02-10T06:54:24.755Z,100.00
2019-02-10T06:55:24.805Z,128.00
2019-02-10T06:56:24.810Z,140.00
2019-02-10T06:57:24.712Z,140.00
2019-02-10T06:58:24.807Z,164.00
2019-02-10T06:59:24.810Z,180.00
2019-02-10T07:00:24.685Z,180.00
2019-02-10T07:01:24.674Z,172.00
2019-02-10T07:02:24.661Z,184.00
2019-02-10T07:03:24.678Z,204.00
2019-02-10T07:04:24.641Z,196.00
2019-02-10T07:05:24.632Z,196.00
2019-02-10T07:06:24.620Z,192.00
2019-02-10T07:07:24.608Z,208.00
2019-02-10T07:08:30.445Z,236.00
2019-02-10T07:09:25.665Z,252.00
2019-02-10T07:10:24.576Z,284.00
2019-02-10T07:11:24.567Z,316.00
2019-02-10T07:12:24.562Z,312.00
2019-02-10T07:13:24.569Z,360.00
2019-02-10T07:14:24.535Z,380.00
2019-02-10T07:15:24.520Z,400.00
2019-02-10T07:16:24.581Z,448.00
2019-02-10T07:17:24.594Z,520.00
2019-02-10T07:18:24.554Z,600.00
2019-02-10T07:19:24.529Z,632.00
2019-02-10T07:20:24.519Z,712.00
2019-02-10T07:21:24.532Z,760.00
2019-02-10T07:22:24.452Z,840.00
2019-02-10T07:23:24.465Z,876.00
2019-02-10T07:24:24.433Z,888.00
2019-02-10T07:25:24.420Z,936.00
2019-02-10T07:26:24.412Z,1116.00
2019-02-10T07:27:24.396Z,1188.00
2019-02-10T07:28:24.417Z,1280.00
2019-02-10T07:29:24.376Z,1328.00
2019-02-10T07:30:24.366Z,1268.00
2019-02-10T07:31:24.361Z,1288.00
2019-02-10T07:32:24.345Z,1312.00
2019-02-10T07:33:24.370Z,1360.00
2019-02-10T07:34:24.324Z,1404.00
2019-02-10T07:35:24.311Z,1396.00
2019-02-10T07:36:24.306Z,1328.00
2019-02-10T07:37:24.295Z,1268.00
2019-02-10T07:38:24.303Z,1240.00
2019-02-10T07:39:24.272Z,1232.00
2019-02-10T07:40:24.260Z,1240.00
2019-02-10T07:41:24.252Z,1244.00
2019-02-10T07:42:24.246Z,1232.00
2019-02-10T07:43:24.255Z,1256.00
2019-02-10T07:44:24.217Z,1280.00
2019-02-10T07:45:24.212Z,1344.00
2019-02-10T07:46:24.199Z,1680.00
2019-02-10T07:47:24.190Z,1900.00
2019-02-10T07:48:24.210Z,2112.00
2019-02-10T07:49:24.167Z,2260.00
2019-02-10T07:50:24.158Z,2160.00
2019-02-10T07:51:24.144Z,2120.00
2019-02-10T07:52:24.134Z,2016.00
2019-02-10T07:53:24.160Z,2060.00
2019-02-10T07:54:24.125Z,2160.00
2019-02-10T07:55:24.101Z,2212.00
2019-02-10T07:56:24.087Z,2100.00
2019-02-10T07:57:24.080Z,2068.00
2019-02-10T07:58:24.097Z,2072.00
2019-02-10T07:59:24.080Z,2240.00
2019-02-10T08:00:24.050Z,2460.00
2019-02-10T08:01:24.036Z,2452.00
2019-02-10T08:02:24.028Z,2848.00
2019-02-10T08:03:24.015Z,3036.00
2019-02-10T08:04:24.056Z,3028.00
2019-02-10T08:05:23.995Z,3352.00
2019-02-10T08:06:23.987Z,3276.00
2019-02-10T08:07:23.976Z,3656.00
2019-02-10T08:08:23.963Z,3580.00
2019-02-10T08:09:23.975Z,3588.00
2019-02-10T08:10:23.967Z,3576.00
2019-02-10T08:11:23.938Z,3308.00
2019-02-10T08:12:23.918Z,3356.00
2019-02-10T08:13:23.908Z,3420.00
2019-02-10T08:14:23.920Z,3332.00
2019-02-10T08:15:23.888Z,3160.00
2019-02-10T08:16:23.880Z,3140.00
2019-02-10T08:17:23.868Z,3060.00
2019-02-10T08:18:23.861Z,2888.00
2019-02-10T08:19:23.871Z,2832.00
2019-02-10T08:20:23.833Z,2980.00
2019-02-10T08:21:23.825Z,3196.00
2019-02-10T08:22:23.812Z,3408.00
2019-02-10T08:23:23.803Z,3352.00
2019-02-10T08:24:23.820Z,3384.00
2019-02-10T08:25:23.780Z,3532.00
2019-02-10T08:26:23.772Z,3400.00
2019-02-10T08:27:23.764Z,3428.00
2019-02-10T08:28:23.748Z,3240.00
2019-02-10T08:29:23.763Z,3308.00
2019-02-10T08:30:23.731Z,3644.00
2019-02-10T08:31:23.717Z,3492.00
2019-02-10T08:32:23.711Z,3040.00
2019-02-10T08:33:23.697Z,3032.00
2019-02-10T08:34:23.707Z,2660.00
2019-02-10T08:35:23.679Z,2624.00
2019-02-10T08:36:23.663Z,2480.00
2019-02-10T08:37:23.651Z,2872.00
2019-02-10T08:38:23.643Z,3368.00
2019-02-10T08:39:23.656Z,3536.00
2019-02-10T08:40:23.619Z,3600.00
2019-02-10T08:41:23.613Z,2964.00
2019-02-10T08:42:23.599Z,2536.00
2019-02-10T08:43:23.587Z,2604.00
2019-02-10T08:44:23.605Z,2628.00
2019-02-10T08:45:23.574Z,2748.00
2019-02-10T08:46:23.555Z,2868.00
2019-02-10T08:47:23.552Z,3268.00
2019-02-10T08:48:23.535Z,3648.00
2019-02-10T08:49:23.590Z,3240.00
2019-02-10T08:50:23.519Z,2920.00
2019-02-10T08:52:13.655Z,2608.00
2019-02-10T08:53:13.615Z,2508.00
2019-02-10T08:54:13.633Z,2412.00
2019-02-10T08:55:13.598Z,2968.00
2019-02-10T08:56:13.586Z,3960.00
2019-02-10T08:57:13.574Z,3932.00
2019-02-10T08:58:13.566Z,4512.00
2019-02-10T08:59:13.592Z,4184.00
2019-02-10T09:00:13.541Z,3288.00
2019-02-10T09:01:13.539Z,3088.00
2019-02-10T09:02:13.529Z,2788.00
2019-02-10T09:03:19.418Z,2816.00
2019-02-10T09:04:14.520Z,3188.00
2019-02-10T09:05:13.488Z,3200.00
2019-02-10T09:06:13.484Z,2992.00
2019-02-10T09:07:13.484Z,3004.00
2019-02-10T09:08:13.458Z,3168.00
2019-02-10T09:09:13.481Z,4036.00
2019-02-10T09:10:13.445Z,4612.00
2019-02-10T09:11:13.429Z,4900.00
2019-02-10T09:12:13.444Z,6692.00
2019-02-10T09:13:13.408Z,7148.00
2019-02-10T09:14:13.429Z,5120.00
2019-02-10T09:15:13.385Z,4620.00
2019-02-10T09:16:13.378Z,5412.00
2019-02-10T09:17:13.371Z,7548.00
2019-02-10T09:18:13.353Z,8308.00
2019-02-10T09:19:13.396Z,8964.00
2019-02-10T09:20:13.330Z,8476.00
2019-02-10T09:21:13.326Z,6560.00
2019-02-10T09:22:13.311Z,5956.00
2019-02-10T09:23:13.299Z,5996.00
2019-02-10T09:24:13.284Z,6704.00
2019-02-10T09:25:13.307Z,7256.00
2019-02-10T09:26:13.270Z,8144.00
2019-02-10T09:27:13.252Z,7620.00
2019-02-10T09:28:13.260Z,7832.00
2019-02-10T09:29:13.237Z,8004.00
2019-02-10T09:30:13.252Z,7816.00
2019-02-10T09:31:13.211Z,7900.00
2019-02-10T09:32:13.200Z,6564.00
2019-02-10T09:33:13.187Z,4832.00
2019-02-10T09:34:13.181Z,3780.00
2019-02-10T09:35:13.197Z,3152.00
2019-02-10T09:36:13.157Z,3208.00
2019-02-10T09:37:13.199Z,4240.00
2019-02-10T09:38:13.132Z,4592.00
2019-02-10T09:39:13.129Z,4300.00
2019-02-10T09:40:13.137Z,4480.00
2019-02-10T09:41:13.108Z,3580.00
2019-02-10T09:42:13.089Z,3180.00
2019-02-10T09:43:13.082Z,3032.00
2019-02-10T09:44:13.071Z,3080.00
2019-02-10T09:45:13.085Z,3448.00
2019-02-10T09:46:13.067Z,3932.00
2019-02-10T09:47:13.037Z,4536.00
2019-02-10T09:48:13.032Z,5640.00
2019-02-10T09:49:13.019Z,5872.00
2019-02-10T09:50:13.028Z,7088.00
2019-02-10T09:51:12.991Z,7224.00
2019-02-10T09:52:12.990Z,6800.00
2019-02-10T09:53:12.975Z,6688.00
2019-02-10T09:54:12.962Z,8372.00
2019-02-10T09:55:12.978Z,9772.00
2019-02-10T09:56:12.942Z,7880.00
2019-02-10T09:57:12.931Z,4868.00
2019-02-10T09:58:12.918Z,4548.00
2019-02-10T09:59:12.906Z,7172.00
2019-02-10T10:00:12.921Z,9084.00
2019-02-10T10:01:14.677Z,10728.00
2019-02-10T10:02:12.872Z,10388.00
2019-02-10T10:03:12.878Z,11040.00
2019-02-10T10:04:12.849Z,13208.00
2019-02-10T10:05:12.887Z,12700.00
2019-02-10T10:06:12.860Z,10316.00
2019-02-10T10:07:12.826Z,8484.00
2019-02-10T10:08:12.808Z,7852.00
2019-02-10T10:09:18.918Z,9024.00
2019-02-10T10:10:13.812Z,9572.00
2019-02-10T10:11:12.769Z,9936.00
2019-02-10T10:12:12.762Z,9956.00
2019-02-10T10:13:12.755Z,9800.00
2019-02-10T10:14:12.737Z,9760.00
2019-02-10T10:15:12.755Z,9820.00
2019-02-10T10:16:12.716Z,8864.00
2019-02-10T10:17:12.703Z,7920.00
2019-02-10T10:18:12.693Z,8492.00
2019-02-10T10:19:12.683Z,9180.00
2019-02-10T10:20:12.706Z,11516.00
2019-02-10T10:21:12.662Z,10624.00
2019-02-10T10:22:12.724Z,12540.00
2019-02-10T10:23:12.636Z,11372.00
2019-02-10T10:24:12.628Z,11252.00
2019-02-10T10:25:12.645Z,11388.00
2019-02-10T10:26:12.599Z,12064.00
2019-02-10T10:27:12.602Z,12664.00
2019-02-10T10:28:12.581Z,12616.00
2019-02-10T10:29:12.656Z,11964.00
2019-02-10T10:30:12.588Z,11844.00
2019-02-10T10:31:12.553Z,10568.00
2019-02-10T10:32:12.537Z,10032.00
2019-02-10T10:33:12.531Z,9716.00
2019-02-10T10:34:12.532Z,9320.00
2019-02-10T10:35:12.538Z,9016.00
2019-02-10T10:36:12.765Z,8600.00
2019-02-10T10:37:12.482Z,8380.00
2019-02-10T10:38:12.472Z,8204.00
2019-02-10T10:39:12.462Z,8112.00
2019-02-10T10:40:12.484Z,7908.00
2019-02-10T10:41:12.439Z,7736.00
2019-02-10T10:42:12.429Z,7676.00
2019-02-10T10:43:12.416Z,7600.00
2019-02-10T10:44:12.404Z,7724.00
2019-02-10T10:45:12.420Z,7684.00
2019-02-10T10:46:12.389Z,6620.00
2019-02-10T10:47:12.379Z,6680.00
2019-02-10T10:48:12.362Z,6968.00
2019-02-10T10:49:12.353Z,6688.00
2019-02-10T10:50:12.386Z,6812.00
2019-02-10T10:51:12.330Z,6580.00
2019-02-10T10:52:12.320Z,6452.00
2019-02-10T10:53:12.311Z,6496.00
2019-02-10T10:54:12.295Z,6568.00
2019-02-10T10:55:12.289Z,6284.00
2019-02-10T10:56:12.300Z,5996.00
2019-02-10T10:57:12.275Z,5780.00
2019-02-10T10:58:12.254Z,5936.00
2019-02-10T10:59:12.243Z,6428.00
2019-02-10T11:00:12.228Z,6696.00
2019-02-10T11:01:12.260Z,6924.00
2019-02-10T11:02:12.208Z,7236.00
2019-02-10T11:03:12.199Z,7252.00
2019-02-10T11:04:12.193Z,7536.00
2019-02-10T11:05:12.180Z,7660.00
2019-02-10T11:06:12.188Z,7636.00
2019-02-10T11:07:12.155Z,7192.00
2019-02-10T11:08:12.140Z,6820.00
2019-02-10T11:09:12.132Z,6248.00
2019-02-10T11:10:12.152Z,5944.00
2019-02-10T11:11:12.137Z,6472.00
2019-02-10T11:12:12.190Z,6400.00
2019-02-10T11:13:12.151Z,6132.00
2019-02-10T11:14:12.076Z,5692.00
2019-02-10T11:15:12.064Z,5612.00
2019-02-10T11:16:12.079Z,5508.00
2019-02-10T11:17:12.073Z,5308.00
2019-02-10T11:18:12.030Z,5272.00
2019-02-10T11:19:12.023Z,4884.00
2019-02-10T11:20:12.010Z,5088.00
2019-02-10T11:21:13.637Z,4980.00
2019-02-10T11:22:11.991Z,5192.00
2019-02-10T11:23:11.979Z,5048.00
2019-02-10T11:24:11.966Z,5160.00
2019-02-10T11:25:11.960Z,5568.00
2019-02-10T11:26:11.968Z,6248.00
2019-02-10T11:27:11.934Z,6636.00
2019-02-10T11:28:11.924Z,7256.00
2019-02-10T11:29:11.908Z,7084.00
2019-02-10T11:30:11.907Z,6036.00
2019-02-10T11:31:11.915Z,5152.00
2019-02-10T11:32:11.880Z,6036.00
2019-02-10T11:33:11.870Z,6836.00
2019-02-10T11:34:11.855Z,7268.00
2019-02-10T11:35:11.844Z,7476.00
2019-02-10T11:36:11.859Z,8880.00
2019-02-10T11:37:11.822Z,9956.00
2019-02-10T11:38:11.808Z,10052.00
2019-02-10T11:39:11.809Z,10152.00
2019-02-10T11:40:11.788Z,10608.00
2019-02-10T11:41:11.804Z,12508.00
2019-02-10T11:42:11.767Z,13876.00
2019-02-10T11:43:11.756Z,14716.00
2019-02-10T11:44:11.746Z,15372.00
2019-02-10T11:45:11.736Z,15860.00
2019-02-10T11:46:11.759Z,15720.00
2019-02-10T11:47:11.712Z,15260.00
2019-02-10T11:48:11.702Z,15544.00
2019-02-10T11:49:11.694Z,15476.00
2019-02-10T11:50:11.678Z,15428.00
2019-02-10T11:51:11.691Z,15140.00
2019-02-10T11:52:11.651Z,15856.00
2019-02-10T11:53:11.643Z,16456.00
2019-02-10T11:54:11.631Z,15876.00
2019-02-10T11:55:11.632Z,15076.00
2019-02-10T11:56:11.635Z,15160.00
2019-02-10T11:57:11.597Z,14792.00
2019-02-10T11:58:11.590Z,14308.00
2019-02-10T11:59:11.581Z,13956.00
2019-02-10T12:00:11.564Z,12808.00
2019-02-10T12:01:11.588Z,11436.00
2019-02-10T12:02:11.547Z,10108.00
2019-02-10T12:03:11.532Z,9832.00
2019-02-10T12:04:11.523Z,10540.00
2019-02-10T12:05:11.508Z,10860.00
2019-02-10T12:06:11.524Z,11336.00
2019-02-10T12:07:11.491Z,11516.00
2019-02-10T12:08:11.479Z,11164.00
2019-02-10T12:09:11.473Z,11328.00
2019-02-10T12:10:11.456Z,10888.00
2019-02-10T12:11:11.477Z,10932.00
2019-02-10T12:12:11.435Z,11280.00
2019-02-10T12:13:11.430Z,9324.00
2019-02-10T12:14:11.427Z,12096.00
2019-02-10T12:15:11.410Z,9204.00
2019-02-10T12:16:11.390Z,8692.00
2019-02-10T12:17:11.407Z,10184.00
2019-02-10T12:18:11.383Z,12968.00
2019-02-10T12:19:11.358Z,15612.00
2019-02-10T12:20:11.352Z,17632.00
2019-02-10T12:21:11.342Z,18528.00
2019-02-10T12:22:11.364Z,18208.00
2019-02-10T12:23:11.316Z,18848.00
2019-02-10T12:24:11.339Z,18752.00
2019-02-10T12:25:11.298Z,18944.00
2019-02-10T12:26:11.281Z,21952.00
2019-02-10T12:27:11.292Z,23168.00
2019-02-10T12:28:11.264Z,21760.00
2019-02-10T12:29:11.250Z,23008.00
2019-02-10T12:30:11.236Z,23232.00
2019-02-10T12:31:11.233Z,23008.00
2019-02-10T12:32:11.258Z,22240.00
2019-02-10T12:33:11.204Z,20352.00
2019-02-10T12:34:11.199Z,19616.00
2019-02-10T12:35:11.219Z,20832.00
2019-02-10T12:36:11.175Z,22240.00
2019-02-10T12:37:11.190Z,21664.00
2019-02-10T12:38:11.153Z,20160.00
2019-02-10T12:39:11.139Z,18208.00
2019-02-10T12:40:11.130Z,16596.00
2019-02-10T12:41:11.123Z,16356.00
2019-02-10T12:42:11.140Z,14856.00